Antelope, Texas
Current Conditions -  °F | °C
As of 9:10 AM on Thursday 23 Oct 2014 (Local Time) from KRPH Reporting Station
Overcast Overcast  
Wind Chill: 66°   Ceiling: 6500
Heat Index: 66°   Visibility: 10mi
Dew Point: 59°   Wind: 5mph
Humidity: 77%   Direction: 150°SSE
Pressure: 30.12"   Gusts: NA
Location:  33.4259°N, 98.383°W
Report Text: KRPH 231410Z AUTO 15004KT 10SM OVC065 19/15 A3012 RMK AO2 T01900149
Loading
Personal Weather Stations






























Interactive Weather Map
Tropical Storm Tracking
New forecast layout! Learn more

10-Day Weather Forecast

Advertisements
Track Severe Weather on mobile